sensor_id;sensor_type;location;lat;lon;timestamp;P1;durP1;ratioP1;P2;durP2;ratioP2
24859;SDS011;12936;52.006;4.350;2022-11-20T00:01:35;15.23;;;9.80;;
24859;SDS011;12936;52.006;4.350;2022-11-20T00:04:03;14.60;;;9.53;;
24859;SDS011;12936;52.006;4.350;2022-11-20T00:06:31;15.83;;;9.90;;
24859;SDS011;12936;52.006;4.350;2022-11-20T00:08:59;14.93;;;9.03;;
24859;SDS011;12936;52.006;4.350;2022-11-20T00:11:30;14.13;;;9.37;;
24859;SDS011;12936;52.006;4.350;2022-11-20T00:13:59;17.57;;;9.80;;
24859;SDS011;12936;52.006;4.350;2022-11-20T00:16:29;13.97;;;8.87;;
24859;SDS011;12936;52.006;4.350;2022-11-20T00:18:59;13.07;;;8.80;;
24859;SDS011;12936;52.006;4.350;2022-11-20T00:21:29;15.00;;;9.33;;
24859;SDS011;12936;52.006;4.350;2022-11-20T00:23:57;19.80;;;9.40;;
24859;SDS011;12936;52.006;4.350;2022-11-20T00:26:25;16.80;;;9.63;;
24859;SDS011;12936;52.006;4.350;2022-11-20T00:28:56;14.70;;;9.00;;
24859;SDS011;12936;52.006;4.350;2022-11-20T00:31:25;15.90;;;9.60;;
24859;SDS011;12936;52.006;4.350;2022-11-20T00:33:54;15.23;;;9.40;;
24859;SDS011;12936;52.006;4.350;2022-11-20T00:36:23;12.53;;;9.50;;
24859;SDS011;12936;52.006;4.350;2022-11-20T00:38:52;14.67;;;10.37;;
24859;SDS011;12936;52.006;4.350;2022-11-20T00:41:22;15.70;;;9.97;;
24859;SDS011;12936;52.006;4.350;2022-11-20T00:43:51;15.20;;;9.40;;
24859;SDS011;12936;52.006;4.350;2022-11-20T00:46:21;15.60;;;9.73;;
24859;SDS011;12936;52.006;4.350;2022-11-20T00:48:50;16.07;;;9.93;;
24859;SDS011;12936;52.006;4.350;2022-11-20T00:51:19;15.87;;;8.97;;
24859;SDS011;12936;52.006;4.350;2022-11-20T00:53:48;13.10;;;8.53;;
24859;SDS011;12936;52.006;4.350;2022-11-20T00:56:17;14.73;;;9.50;;
24859;SDS011;12936;52.006;4.350;2022-11-20T00:58:46;16.23;;;9.20;;
24859;SDS011;12936;52.006;4.350;2022-11-20T01:01:16;12.97;;;8.70;;
24859;SDS011;12936;52.006;4.350;2022-11-20T01:03:48;13.27;;;8.93;;
24859;SDS011;12936;52.006;4.350;2022-11-20T01:06:17;13.50;;;8.90;;
24859;SDS011;12936;52.006;4.350;2022-11-20T01:08:47;14.07;;;9.57;;
24859;SDS011;12936;52.006;4.350;2022-11-20T01:11:16;14.03;;;9.40;;
24859;SDS011;12936;52.006;4.350;2022-11-20T01:13:47;16.43;;;10.03;;
24859;SDS011;12936;52.006;4.350;2022-11-20T01:16:19;15.17;;;9.57;;
24859;SDS011;12936;52.006;4.350;2022-11-20T01:18:51;15.53;;;9.90;;
24859;SDS011;12936;52.006;4.350;2022-11-20T01:21:21;17.13;;;9.90;;
24859;SDS011;12936;52.006;4.350;2022-11-20T01:23:50;15.93;;;8.53;;
24859;SDS011;12936;52.006;4.350;2022-11-20T01:26:19;15.90;;;9.80;;
24859;SDS011;12936;52.006;4.350;2022-11-20T01:28:48;14.83;;;9.53;;
24859;SDS011;12936;52.006;4.350;2022-11-20T01:31:18;16.77;;;10.07;;
24859;SDS011;12936;52.006;4.350;2022-11-20T01:33:48;13.17;;;9.37;;
24859;SDS011;12936;52.006;4.350;2022-11-20T01:36:20;15.57;;;9.50;;
24859;SDS011;12936;52.006;4.350;2022-11-20T01:38:50;15.87;;;9.30;;
24859;SDS011;12936;52.006;4.350;2022-11-20T01:41:18;14.10;;;9.10;;
24859;SDS011;12936;52.006;4.350;2022-11-20T01:44:01;18.47;;;10.07;;
24859;SDS011;12936;52.006;4.350;2022-11-20T01:46:30;15.23;;;9.63;;
24859;SDS011;12936;52.006;4.350;2022-11-20T01:49:00;15.33;;;9.10;;
24859;SDS011;12936;52.006;4.350;2022-11-20T01:51:33;17.60;;;9.47;;
24859;SDS011;12936;52.006;4.350;2022-11-20T01:54:06;14.70;;;9.30;;
24859;SDS011;12936;52.006;4.350;2022-11-20T01:56:58;14.33;;;8.80;;
24859;SDS011;12936;52.006;4.350;2022-11-20T01:59:28;14.27;;;8.50;;
24859;SDS011;12936;52.006;4.350;2022-11-20T02:01:57;14.17;;;8.73;;
24859;SDS011;12936;52.006;4.350;2022-11-20T02:04:25;15.00;;;9.30;;
24859;SDS011;12936;52.006;4.350;2022-11-20T02:06:55;15.07;;;9.67;;
24859;SDS011;12936;52.006;4.350;2022-11-20T02:09:26;12.97;;;8.63;;
24859;SDS011;12936;52.006;4.350;2022-11-20T02:11:54;14.30;;;8.87;;
24859;SDS011;12936;52.006;4.350;2022-11-20T02:14:23;14.40;;;9.10;;
24859;SDS011;12936;52.006;4.350;2022-11-20T02:16:51;14.77;;;9.43;;
24859;SDS011;12936;52.006;4.350;2022-11-20T02:19:22;17.43;;;8.93;;
24859;SDS011;12936;52.006;4.350;2022-11-20T02:21:57;13.47;;;8.47;;
24859;SDS011;12936;52.006;4.350;2022-11-20T02:24:34;14.27;;;9.57;;
24859;SDS011;12936;52.006;4.350;2022-11-20T02:27:02;14.77;;;9.60;;
24859;SDS011;12936;52.006;4.350;2022-11-20T02:29:34;14.83;;;8.80;;
24859;SDS011;12936;52.006;4.350;2022-11-20T02:32:05;15.27;;;9.80;;
24859;SDS011;12936;52.006;4.350;2022-11-20T02:34:33;13.37;;;9.30;;
24859;SDS011;12936;52.006;4.350;2022-11-20T02:37:01;15.17;;;9.57;;
24859;SDS011;12936;52.006;4.350;2022-11-20T02:39:29;17.70;;;10.00;;
24859;SDS011;12936;52.006;4.350;2022-11-20T02:42:00;15.00;;;9.50;;
24859;SDS011;12936;52.006;4.350;2022-11-20T02:44:29;17.03;;;8.87;;
24859;SDS011;12936;52.006;4.350;2022-11-20T02:46:57;14.67;;;9.20;;
24859;SDS011;12936;52.006;4.350;2022-11-20T02:49:25;13.97;;;8.87;;
24859;SDS011;12936;52.006;4.350;2022-11-20T02:51:54;17.20;;;9.80;;
24859;SDS011;12936;52.006;4.350;2022-11-20T02:54:22;14.83;;;9.37;;
24859;SDS011;12936;52.006;4.350;2022-11-20T02:56:50;14.73;;;8.83;;
24859;SDS011;12936;52.006;4.350;2022-11-20T02:59:19;13.70;;;9.10;;
24859;SDS011;12936;52.006;4.350;2022-11-20T03:01:48;16.07;;;9.57;;
24859;SDS011;12936;52.006;4.350;2022-11-20T03:04:16;15.40;;;10.20;;
24859;SDS011;12936;52.006;4.350;2022-11-20T03:06:44;15.73;;;9.80;;
24859;SDS011;12936;52.006;4.350;2022-11-20T03:09:12;15.03;;;9.23;;
24859;SDS011;12936;52.006;4.350;2022-11-20T03:11:40;14.87;;;9.80;;
24859;SDS011;12936;52.006;4.350;2022-11-20T03:14:08;13.13;;;9.60;;
24859;SDS011;12936;52.006;4.350;2022-11-20T03:16:37;13.87;;;9.67;;
24859;SDS011;12936;52.006;4.350;2022-11-20T03:19:06;21.20;;;10.30;;
24859;SDS011;12936;52.006;4.350;2022-11-20T03:21:34;17.77;;;10.17;;
24859;SDS011;12936;52.006;4.350;2022-11-20T03:24:03;15.87;;;10.70;;
24859;SDS011;12936;52.006;4.350;2022-11-20T03:26:31;16.83;;;10.00;;
24859;SDS011;12936;52.006;4.350;2022-11-20T03:29:03;18.50;;;10.30;;
24859;SDS011;12936;52.006;4.350;2022-11-20T03:31:32;15.60;;;9.13;;
24859;SDS011;12936;52.006;4.350;2022-11-20T03:34:03;17.03;;;10.43;;
24859;SDS011;12936;52.006;4.350;2022-11-20T03:36:31;16.53;;;10.07;;
24859;SDS011;12936;52.006;4.350;2022-11-20T03:39:00;17.43;;;11.17;;
24859;SDS011;12936;52.006;4.350;2022-11-20T03:41:29;15.93;;;9.93;;
24859;SDS011;12936;52.006;4.350;2022-11-20T03:43:59;13.47;;;8.90;;
24859;SDS011;12936;52.006;4.350;2022-11-20T03:46:28;16.63;;;9.60;;
24859;SDS011;12936;52.006;4.350;2022-11-20T03:48:56;16.60;;;10.07;;
24859;SDS011;12936;52.006;4.350;2022-11-20T03:51:26;14.47;;;9.60;;
24859;SDS011;12936;52.006;4.350;2022-11-20T03:53:59;16.00;;;10.20;;
24859;SDS011;12936;52.006;4.350;2022-11-20T03:56:30;14.37;;;9.83;;
24859;SDS011;12936;52.006;4.350;2022-11-20T03:59:00;16.73;;;10.27;;
24859;SDS011;12936;52.006;4.350;2022-11-20T04:01:29;16.07;;;9.77;;
24859;SDS011;12936;52.006;4.350;2022-11-20T04:03:58;16.33;;;9.93;;
24859;SDS011;12936;52.006;4.350;2022-11-20T04:06:29;13.93;;;9.20;;
24859;SDS011;12936;52.006;4.350;2022-11-20T04:08:58;15.17;;;9.23;;
24859;SDS011;12936;52.006;4.350;2022-11-20T04:11:27;16.63;;;10.77;;
24859;SDS011;12936;52.006;4.350;2022-11-20T04:13:56;17.03;;;9.13;;
24859;SDS011;12936;52.006;4.350;2022-11-20T04:16:25;15.07;;;9.93;;
24859;SDS011;12936;52.006;4.350;2022-11-20T04:18:56;15.30;;;9.77;;
24859;SDS011;12936;52.006;4.350;2022-11-20T04:21:25;17.43;;;10.20;;
24859;SDS011;12936;52.006;4.350;2022-11-20T04:23:55;15.73;;;10.03;;
24859;SDS011;12936;52.006;4.350;2022-11-20T04:26:24;16.00;;;10.30;;
24859;SDS011;12936;52.006;4.350;2022-11-20T04:28:53;17.23;;;10.50;;
24859;SDS011;12936;52.006;4.350;2022-11-20T04:31:21;16.67;;;9.40;;
24859;SDS011;12936;52.006;4.350;2022-11-20T04:33:51;16.47;;;10.20;;
24859;SDS011;12936;52.006;4.350;2022-11-20T04:36:20;19.60;;;10.30;;
24859;SDS011;12936;52.006;4.350;2022-11-20T04:38:50;20.40;;;10.43;;
24859;SDS011;12936;52.006;4.350;2022-11-20T04:41:25;18.13;;;10.60;;
24859;SDS011;12936;52.006;4.350;2022-11-20T04:43:55;15.17;;;9.63;;
24859;SDS011;12936;52.006;4.350;2022-11-20T04:46:26;15.53;;;9.83;;
24859;SDS011;12936;52.006;4.350;2022-11-20T04:48:55;16.40;;;9.60;;
24859;SDS011;12936;52.006;4.350;2022-11-20T04:51:23;13.77;;;8.93;;
24859;SDS011;12936;52.006;4.350;2022-11-20T04:53:51;16.30;;;10.13;;
24859;SDS011;12936;52.006;4.350;2022-11-20T04:56:19;17.60;;;10.83;;
24859;SDS011;12936;52.006;4.350;2022-11-20T04:58:49;14.40;;;9.57;;
24859;SDS011;12936;52.006;4.350;2022-11-20T05:01:18;18.03;;;10.43;;
24859;SDS011;12936;52.006;4.350;2022-11-20T05:03:48;16.70;;;9.93;;
24859;SDS011;12936;52.006;4.350;2022-11-20T05:06:18;14.47;;;9.83;;
24859;SDS011;12936;52.006;4.350;2022-11-20T05:08:47;15.20;;;9.80;;
24859;SDS011;12936;52.006;4.350;2022-11-20T05:11:17;15.17;;;9.67;;
24859;SDS011;12936;52.006;4.350;2022-11-20T05:13:46;16.80;;;10.27;;
24859;SDS011;12936;52.006;4.350;2022-11-20T05:16:17;18.03;;;10.67;;
24859;SDS011;12936;52.006;4.350;2022-11-20T05:18:46;16.20;;;10.57;;
24859;SDS011;12936;52.006;4.350;2022-11-20T05:21:15;18.80;;;10.40;;
24859;SDS011;12936;52.006;4.350;2022-11-20T05:23:44;16.07;;;9.93;;
24859;SDS011;12936;52.006;4.350;2022-11-20T05:26:13;17.33;;;11.00;;
24859;SDS011;12936;52.006;4.350;2022-11-20T05:28:43;14.27;;;9.73;;
24859;SDS011;12936;52.006;4.350;2022-11-20T05:31:13;17.27;;;10.17;;
24859;SDS011;12936;52.006;4.350;2022-11-20T05:33:52;16.53;;;10.17;;
24859;SDS011;12936;52.006;4.350;2022-11-20T05:36:20;16.93;;;10.77;;
24859;SDS011;12936;52.006;4.350;2022-11-20T05:38:48;16.70;;;10.33;;
24859;SDS011;12936;52.006;4.350;2022-11-20T05:41:19;18.97;;;10.57;;
24859;SDS011;12936;52.006;4.350;2022-11-20T05:43:48;17.00;;;10.87;;
24859;SDS011;12936;52.006;4.350;2022-11-20T05:46:20;16.40;;;10.10;;
24859;SDS011;12936;52.006;4.350;2022-11-20T05:48:54;17.63;;;10.80;;
24859;SDS011;12936;52.006;4.350;2022-11-20T05:51:23;15.00;;;9.77;;
24859;SDS011;12936;52.006;4.350;2022-11-20T05:53:52;17.30;;;10.00;;
24859;SDS011;12936;52.006;4.350;2022-11-20T05:56:20;17.33;;;10.83;;
24859;SDS011;12936;52.006;4.350;2022-11-20T05:58:49;17.07;;;11.03;;
24859;SDS011;12936;52.006;4.350;2022-11-20T06:01:19;18.33;;;11.13;;
24859;SDS011;12936;52.006;4.350;2022-11-20T06:03:49;17.27;;;10.90;;
24859;SDS011;12936;52.006;4.350;2022-11-20T06:06:17;16.23;;;10.63;;
24859;SDS011;12936;52.006;4.350;2022-11-20T06:08:46;15.27;;;9.93;;
24859;SDS011;12936;52.006;4.350;2022-11-20T06:11:15;18.87;;;10.90;;
24859;SDS011;12936;52.006;4.350;2022-11-20T06:13:44;18.33;;;11.00;;
24859;SDS011;12936;52.006;4.350;2022-11-20T06:16:14;18.47;;;10.40;;
24859;SDS011;12936;52.006;4.350;2022-11-20T06:18:44;17.40;;;10.83;;
24859;SDS011;12936;52.006;4.350;2022-11-20T06:21:13;16.57;;;10.57;;
24859;SDS011;12936;52.006;4.350;2022-11-20T06:23:42;17.40;;;10.67;;
24859;SDS011;12936;52.006;4.350;2022-11-20T06:26:13;15.70;;;10.60;;
24859;SDS011;12936;52.006;4.350;2022-11-20T06:28:43;17.40;;;10.80;;
24859;SDS011;12936;52.006;4.350;2022-11-20T06:31:12;15.70;;;10.53;;
24859;SDS011;12936;52.006;4.350;2022-11-20T06:33:43;17.20;;;10.73;;
24859;SDS011;12936;52.006;4.350;2022-11-20T06:36:12;19.37;;;10.60;;
24859;SDS011;12936;52.006;4.350;2022-11-20T06:38:41;15.87;;;10.90;;
24859;SDS011;12936;52.006;4.350;2022-11-20T06:41:10;18.00;;;10.53;;
24859;SDS011;12936;52.006;4.350;2022-11-20T06:43:40;18.53;;;11.53;;
24859;SDS011;12936;52.006;4.350;2022-11-20T06:46:08;19.83;;;11.73;;
24859;SDS011;12936;52.006;4.350;2022-11-20T06:48:37;18.20;;;11.23;;
24859;SDS011;12936;52.006;4.350;2022-11-20T06:51:07;16.30;;;10.13;;
24859;SDS011;12936;52.006;4.350;2022-11-20T06:53:36;16.00;;;10.40;;
24859;SDS011;12936;52.006;4.350;2022-11-20T06:56:04;19.80;;;11.87;;
24859;SDS011;12936;52.006;4.350;2022-11-20T06:58:33;19.03;;;12.57;;
24859;SDS011;12936;52.006;4.350;2022-11-20T07:01:03;18.63;;;11.27;;
24859;SDS011;12936;52.006;4.350;2022-11-20T07:03:33;18.83;;;12.10;;
24859;SDS011;12936;52.006;4.350;2022-11-20T07:06:02;20.23;;;12.97;;
24859;SDS011;12936;52.006;4.350;2022-11-20T07:08:32;20.10;;;12.73;;
24859;SDS011;12936;52.006;4.350;2022-11-20T07:11:01;16.47;;;11.17;;
24859;SDS011;12936;52.006;4.350;2022-11-20T07:13:31;19.13;;;11.53;;
24859;SDS011;12936;52.006;4.350;2022-11-20T07:16:00;18.50;;;11.60;;
24859;SDS011;12936;52.006;4.350;2022-11-20T07:18:28;19.00;;;11.47;;
24859;SDS011;12936;52.006;4.350;2022-11-20T07:20:59;17.73;;;11.97;;
24859;SDS011;12936;52.006;4.350;2022-11-20T07:23:28;16.10;;;10.50;;
24859;SDS011;12936;52.006;4.350;2022-11-20T07:25:57;19.43;;;10.60;;
24859;SDS011;12936;52.006;4.350;2022-11-20T07:28:29;20.53;;;12.10;;
24859;SDS011;12936;52.006;4.350;2022-11-20T07:30:57;18.17;;;10.67;;
24859;SDS011;12936;52.006;4.350;2022-11-20T07:33:25;18.77;;;10.77;;
24859;SDS011;12936;52.006;4.350;2022-11-20T07:35:54;20.70;;;11.70;;
24859;SDS011;12936;52.006;4.350;2022-11-20T07:38:22;21.87;;;11.70;;
24859;SDS011;12936;52.006;4.350;2022-11-20T07:40:53;20.37;;;11.60;;
24859;SDS011;12936;52.006;4.350;2022-11-20T07:43:23;17.87;;;11.37;;
24859;SDS011;12936;52.006;4.350;2022-11-20T07:45:54;18.63;;;11.63;;
24859;SDS011;12936;52.006;4.350;2022-11-20T07:48:24;19.00;;;12.23;;
24859;SDS011;12936;52.006;4.350;2022-11-20T07:50:53;17.40;;;11.20;;
24859;SDS011;12936;52.006;4.350;2022-11-20T07:53:21;17.50;;;10.60;;
24859;SDS011;12936;52.006;4.350;2022-11-20T07:55:49;20.00;;;12.00;;
24859;SDS011;12936;52.006;4.350;2022-11-20T07:58:18;20.33;;;13.00;;
24859;SDS011;12936;52.006;4.350;2022-11-20T08:00:48;19.67;;;12.53;;
24859;SDS011;12936;52.006;4.350;2022-11-20T08:03:16;20.87;;;12.47;;
24859;SDS011;12936;52.006;4.350;2022-11-20T08:05:50;19.93;;;11.83;;
24859;SDS011;12936;52.006;4.350;2022-11-20T08:08:18;19.07;;;11.83;;
24859;SDS011;12936;52.006;4.350;2022-11-20T08:10:46;18.53;;;12.27;;
24859;SDS011;12936;52.006;4.350;2022-11-20T08:13:14;19.13;;;11.73;;
24859;SDS011;12936;52.006;4.350;2022-11-20T08:16:01;19.33;;;12.27;;
24859;SDS011;12936;52.006;4.350;2022-11-20T08:18:29;25.47;;;12.50;;
24859;SDS011;12936;52.006;4.350;2022-11-20T08:21:01;23.23;;;13.30;;
24859;SDS011;12936;52.006;4.350;2022-11-20T08:23:30;22.03;;;12.53;;
24859;SDS011;12936;52.006;4.350;2022-11-20T08:25:59;19.13;;;12.50;;
24859;SDS011;12936;52.006;4.350;2022-11-20T08:28:27;22.70;;;13.00;;
24859;SDS011;12936;52.006;4.350;2022-11-20T08:30:57;19.10;;;12.43;;
24859;SDS011;12936;52.006;4.350;2022-11-20T08:33:27;17.43;;;12.00;;
24859;SDS011;12936;52.006;4.350;2022-11-20T08:35:58;20.87;;;12.30;;
24859;SDS011;12936;52.006;4.350;2022-11-20T08:38:27;24.03;;;13.57;;
24859;SDS011;12936;52.006;4.350;2022-11-20T08:40:56;20.83;;;13.33;;
24859;SDS011;12936;52.006;4.350;2022-11-20T08:43:42;22.70;;;13.90;;
24859;SDS011;12936;52.006;4.350;2022-11-20T08:46:10;27.37;;;14.10;;
24859;SDS011;12936;52.006;4.350;2022-11-20T08:48:39;20.30;;;12.97;;
24859;SDS011;12936;52.006;4.350;2022-11-20T08:51:08;21.60;;;12.63;;
24859;SDS011;12936;52.006;4.350;2022-11-20T08:53:36;21.90;;;13.73;;
24859;SDS011;12936;52.006;4.350;2022-11-20T08:56:04;23.43;;;14.63;;
24859;SDS011;12936;52.006;4.350;2022-11-20T08:58:33;21.37;;;13.33;;
24859;SDS011;12936;52.006;4.350;2022-11-20T09:01:22;21.07;;;12.97;;
24859;SDS011;12936;52.006;4.350;2022-11-20T09:03:52;22.30;;;13.17;;
24859;SDS011;12936;52.006;4.350;2022-11-20T09:06:22;23.07;;;13.73;;
24859;SDS011;12936;52.006;4.350;2022-11-20T09:08:51;21.87;;;13.57;;
24859;SDS011;12936;52.006;4.350;2022-11-20T09:11:19;24.07;;;14.10;;
24859;SDS011;12936;52.006;4.350;2022-11-20T09:13:48;21.37;;;13.90;;
24859;SDS011;12936;52.006;4.350;2022-11-20T09:16:16;23.50;;;13.97;;
24859;SDS011;12936;52.006;4.350;2022-11-20T09:18:44;23.97;;;15.07;;
24859;SDS011;12936;52.006;4.350;2022-11-20T09:21:13;21.37;;;14.47;;
24859;SDS011;12936;52.006;4.350;2022-11-20T09:23:41;24.20;;;14.80;;
24859;SDS011;12936;52.006;4.350;2022-11-20T09:26:10;25.10;;;15.73;;
24859;SDS011;12936;52.006;4.350;2022-11-20T09:28:39;23.13;;;15.70;;
24859;SDS011;12936;52.006;4.350;2022-11-20T09:31:07;23.77;;;15.43;;
24859;SDS011;12936;52.006;4.350;2022-11-20T09:33:37;24.97;;;14.70;;
24859;SDS011;12936;52.006;4.350;2022-11-20T09:36:05;26.80;;;15.53;;
24859;SDS011;12936;52.006;4.350;2022-11-20T09:38:35;27.17;;;14.77;;
24859;SDS011;12936;52.006;4.350;2022-11-20T09:41:05;25.57;;;15.43;;
24859;SDS011;12936;52.006;4.350;2022-11-20T09:43:46;26.83;;;15.90;;
24859;SDS011;12936;52.006;4.350;2022-11-20T09:46:25;23.33;;;15.20;;
24859;SDS011;12936;52.006;4.350;2022-11-20T09:49:11;25.53;;;15.47;;
24859;SDS011;12936;52.006;4.350;2022-11-20T09:51:58;25.73;;;15.30;;
24859;SDS011;12936;52.006;4.350;2022-11-20T09:54:29;25.60;;;15.83;;
24859;SDS011;12936;52.006;4.350;2022-11-20T09:57:00;24.77;;;15.73;;
24859;SDS011;12936;52.006;4.350;2022-11-20T09:59:34;27.37;;;16.07;;
24859;SDS011;12936;52.006;4.350;2022-11-20T10:02:12;27.40;;;16.00;;
24859;SDS011;12936;52.006;4.350;2022-11-20T10:04:44;26.37;;;16.17;;
24859;SDS011;12936;52.006;4.350;2022-11-20T10:07:20;43.07;;;23.93;;
24859;SDS011;12936;52.006;4.350;2022-11-20T10:09:59;28.13;;;17.70;;
24859;SDS011;12936;52.006;4.350;2022-11-20T10:12:31;50.37;;;24.37;;
24859;SDS011;12936;52.006;4.350;2022-11-20T10:15:12;29.30;;;16.93;;
24859;SDS011;12936;52.006;4.350;2022-11-20T10:17:58;31.87;;;18.43;;
24859;SDS011;12936;52.006;4.350;2022-11-20T10:20:39;30.50;;;18.57;;
24859;SDS011;12936;52.006;4.350;2022-11-20T10:23:29;30.13;;;19.17;;
24859;SDS011;12936;52.006;4.350;2022-11-20T10:26:16;29.27;;;17.37;;
24859;SDS011;12936;52.006;4.350;2022-11-20T10:28:51;28.93;;;17.33;;
24859;SDS011;12936;52.006;4.350;2022-11-20T10:31:34;29.33;;;18.07;;
24859;SDS011;12936;52.006;4.350;2022-11-20T10:34:05;27.93;;;16.93;;
24859;SDS011;12936;52.006;4.350;2022-11-20T10:36:49;29.70;;;16.27;;
24859;SDS011;12936;52.006;4.350;2022-11-20T10:39:25;29.90;;;18.17;;
24859;SDS011;12936;52.006;4.350;2022-11-20T10:42:02;36.43;;;22.80;;
24859;SDS011;12936;52.006;4.350;2022-11-20T10:44:35;31.87;;;17.57;;
24859;SDS011;12936;52.006;4.350;2022-11-20T10:47:30;27.73;;;17.27;;
24859;SDS011;12936;52.006;4.350;2022-11-20T10:50:01;33.20;;;19.10;;
24859;SDS011;12936;52.006;4.350;2022-11-20T10:52:32;33.03;;;19.73;;
24859;SDS011;12936;52.006;4.350;2022-11-20T10:55:11;30.03;;;18.13;;
24859;SDS011;12936;52.006;4.350;2022-11-20T10:57:54;31.70;;;18.77;;
24859;SDS011;12936;52.006;4.350;2022-11-20T11:00:31;29.27;;;18.23;;
24859;SDS011;12936;52.006;4.350;2022-11-20T11:02:59;32.80;;;19.37;;
24859;SDS011;12936;52.006;4.350;2022-11-20T11:05:33;32.90;;;19.10;;
24859;SDS011;12936;52.006;4.350;2022-11-20T11:08:09;31.17;;;18.37;;
24859;SDS011;12936;52.006;4.350;2022-11-20T11:10:42;32.10;;;18.37;;
24859;SDS011;12936;52.006;4.350;2022-11-20T11:13:24;33.60;;;18.63;;
24859;SDS011;12936;52.006;4.350;2022-11-20T11:15:54;30.67;;;18.20;;
24859;SDS011;12936;52.006;4.350;2022-11-20T11:18:31;33.00;;;18.63;;
24859;SDS011;12936;52.006;4.350;2022-11-20T11:21:02;32.13;;;19.17;;
24859;SDS011;12936;52.006;4.350;2022-11-20T11:23:32;34.20;;;20.73;;
24859;SDS011;12936;52.006;4.350;2022-11-20T11:26:02;29.63;;;19.17;;
24859;SDS011;12936;52.006;4.350;2022-11-20T11:28:34;30.93;;;19.00;;
24859;SDS011;12936;52.006;4.350;2022-11-20T11:31:03;34.07;;;19.13;;
24859;SDS011;12936;52.006;4.350;2022-11-20T11:33:31;34.93;;;19.60;;
24859;SDS011;12936;52.006;4.350;2022-11-20T11:36:02;30.53;;;19.03;;
24859;SDS011;12936;52.006;4.350;2022-11-20T11:38:34;33.40;;;18.73;;
24859;SDS011;12936;52.006;4.350;2022-11-20T11:41:04;29.23;;;19.07;;
24859;SDS011;12936;52.006;4.350;2022-11-20T11:43:36;31.93;;;19.03;;
24859;SDS011;12936;52.006;4.350;2022-11-20T11:46:27;33.67;;;18.10;;
24859;SDS011;12936;52.006;4.350;2022-11-20T11:48:59;33.90;;;18.70;;
24859;SDS011;12936;52.006;4.350;2022-11-20T11:51:31;32.47;;;19.97;;
24859;SDS011;12936;52.006;4.350;2022-11-20T11:54:05;32.83;;;19.40;;
24859;SDS011;12936;52.006;4.350;2022-11-20T11:56:43;31.67;;;18.00;;
24859;SDS011;12936;52.006;4.350;2022-11-20T11:59:15;33.10;;;20.27;;
24859;SDS011;12936;52.006;4.350;2022-11-20T12:01:51;35.93;;;19.03;;
24859;SDS011;12936;52.006;4.350;2022-11-20T12:04:25;31.57;;;20.70;;
24859;SDS011;12936;52.006;4.350;2022-11-20T12:07:08;34.60;;;19.47;;
24859;SDS011;12936;52.006;4.350;2022-11-20T12:10:01;37.83;;;20.10;;
24859;SDS011;12936;52.006;4.350;2022-11-20T12:12:31;34.33;;;19.53;;
24859;SDS011;12936;52.006;4.350;2022-11-20T12:15:09;36.67;;;20.27;;
24859;SDS011;12936;52.006;4.350;2022-11-20T12:17:40;41.57;;;21.30;;
24859;SDS011;12936;52.006;4.350;2022-11-20T12:20:13;34.80;;;20.73;;
24859;SDS011;12936;52.006;4.350;2022-11-20T12:22:49;49.30;;;28.33;;
24859;SDS011;12936;52.006;4.350;2022-11-20T12:25:24;36.63;;;21.17;;
24859;SDS011;12936;52.006;4.350;2022-11-20T12:28:09;37.40;;;21.90;;
24859;SDS011;12936;52.006;4.350;2022-11-20T12:31:04;41.10;;;22.17;;
24859;SDS011;12936;52.006;4.350;2022-11-20T12:34:03;38.40;;;21.30;;
24859;SDS011;12936;52.006;4.350;2022-11-20T12:36:50;42.33;;;22.27;;
24859;SDS011;12936;52.006;4.350;2022-11-20T12:39:33;42.70;;;21.20;;
24859;SDS011;12936;52.006;4.350;2022-11-20T12:42:06;39.53;;;22.27;;
24859;SDS011;12936;52.006;4.350;2022-11-20T12:45:14;42.33;;;22.20;;
24859;SDS011;12936;52.006;4.350;2022-11-20T12:48:19;37.57;;;21.80;;
24859;SDS011;12936;52.006;4.350;2022-11-20T12:51:18;37.17;;;21.20;;
24859;SDS011;12936;52.006;4.350;2022-11-20T12:54:03;38.03;;;21.07;;
24859;SDS011;12936;52.006;4.350;2022-11-20T12:56:47;38.13;;;21.20;;
24859;SDS011;12936;52.006;4.350;2022-11-20T12:59:32;39.13;;;21.73;;
24859;SDS011;12936;52.006;4.350;2022-11-20T13:02:14;36.87;;;20.10;;
24859;SDS011;12936;52.006;4.350;2022-11-20T13:04:58;41.13;;;22.07;;
24859;SDS011;12936;52.006;4.350;2022-11-20T13:07:44;41.20;;;22.47;;
24859;SDS011;12936;52.006;4.350;2022-11-20T13:10:14;46.23;;;23.57;;
24859;SDS011;12936;52.006;4.350;2022-11-20T13:12:49;43.37;;;22.77;;
24859;SDS011;12936;52.006;4.350;2022-11-20T13:15:30;43.87;;;22.37;;
24859;SDS011;12936;52.006;4.350;2022-11-20T13:18:06;43.77;;;23.27;;
24859;SDS011;12936;52.006;4.350;2022-11-20T13:20:42;40.97;;;23.23;;
24859;SDS011;12936;52.006;4.350;2022-11-20T13:23:22;42.97;;;23.20;;
24859;SDS011;12936;52.006;4.350;2022-11-20T13:25:50;42.77;;;23.47;;
24859;SDS011;12936;52.006;4.350;2022-11-20T13:28:29;40.33;;;22.20;;
24859;SDS011;12936;52.006;4.350;2022-11-20T13:30:57;43.73;;;24.10;;
24859;SDS011;12936;52.006;4.350;2022-11-20T13:33:28;42.97;;;22.07;;
24859;SDS011;12936;52.006;4.350;2022-11-20T13:36:00;40.63;;;22.60;;
24859;SDS011;12936;52.006;4.350;2022-11-20T13:38:40;43.90;;;23.63;;
24859;SDS011;12936;52.006;4.350;2022-11-20T13:41:11;51.30;;;27.57;;
24859;SDS011;12936;52.006;4.350;2022-11-20T13:43:58;44.97;;;23.47;;
24859;SDS011;12936;52.006;4.350;2022-11-20T13:46:35;43.07;;;23.60;;
24859;SDS011;12936;52.006;4.350;2022-11-20T13:49:08;48.43;;;23.90;;
24859;SDS011;12936;52.006;4.350;2022-11-20T13:51:44;46.07;;;23.93;;
24859;SDS011;12936;52.006;4.350;2022-11-20T13:54:18;47.40;;;24.80;;
24859;SDS011;12936;52.006;4.350;2022-11-20T13:57:03;43.10;;;23.70;;
24859;SDS011;12936;52.006;4.350;2022-11-20T13:59:45;49.33;;;25.60;;
24859;SDS011;12936;52.006;4.350;2022-11-20T14:02:21;46.60;;;23.73;;
24859;SDS011;12936;52.006;4.350;2022-11-20T14:04:52;43.40;;;23.93;;
24859;SDS011;12936;52.006;4.350;2022-11-20T14:07:25;45.43;;;24.20;;
24859;SDS011;12936;52.006;4.350;2022-11-20T14:09:59;40.73;;;23.77;;
24859;SDS011;12936;52.006;4.350;2022-11-20T14:12:28;49.30;;;24.13;;
24859;SDS011;12936;52.006;4.350;2022-11-20T14:14:57;41.43;;;21.83;;
24859;SDS011;12936;52.006;4.350;2022-11-20T14:17:29;38.50;;;22.80;;
24859;SDS011;12936;52.006;4.350;2022-11-20T14:19:59;41.63;;;23.50;;
24859;SDS011;12936;52.006;4.350;2022-11-20T14:22:30;44.33;;;24.40;;
24859;SDS011;12936;52.006;4.350;2022-11-20T14:25:03;46.27;;;23.93;;
24859;SDS011;12936;52.006;4.350;2022-11-20T14:27:33;45.37;;;23.60;;
24859;SDS011;12936;52.006;4.350;2022-11-20T14:30:03;41.03;;;23.13;;
24859;SDS011;12936;52.006;4.350;2022-11-20T14:32:32;40.40;;;22.20;;
24859;SDS011;12936;52.006;4.350;2022-11-20T14:35:06;42.70;;;22.13;;
24859;SDS011;12936;52.006;4.350;2022-11-20T14:37:38;40.27;;;22.57;;
24859;SDS011;12936;52.006;4.350;2022-11-20T14:40:22;41.00;;;21.90;;
24859;SDS011;12936;52.006;4.350;2022-11-20T14:43:02;42.40;;;23.73;;
24859;SDS011;12936;52.006;4.350;2022-11-20T14:45:48;38.17;;;21.87;;
24859;SDS011;12936;52.006;4.350;2022-11-20T14:48:24;39.10;;;21.77;;
24859;SDS011;12936;52.006;4.350;2022-11-20T14:50:56;39.27;;;22.83;;
24859;SDS011;12936;52.006;4.350;2022-11-20T14:53:26;38.30;;;21.47;;
24859;SDS011;12936;52.006;4.350;2022-11-20T14:55:55;41.37;;;22.67;;